Augusta, Montana
Current Conditions -  °F | °C
As of 1:53 PM on Tuesday 21 Oct 2014 (Local Time) from KGTF Reporting Station
Light Rain Light Rain  
Wind Chill: 43°   Ceiling: 4000
Heat Index: 48°   Visibility: 5mi
Dew Point: 45°   Wind: 13mph
Humidity: 89%   Direction: 320°NW
Pressure: 29.74"   Gusts: NA
Location:  47.49°N, 112.4°W
Report Text: KGTF 211953Z 32011KT 5SM -RA BR BKN040 OVC055 09/07 A2974 RMK AO2 PK WND 35028/1906 LTG DSNT S RAB13 PRESRR SLP062 P0001 T00890072
Loading
Personal Weather Stations






























Interactive Weather Map
Tropical Storm Tracking
New forecast layout! Learn more

10-Day Weather Forecast

Advertisements
Track Severe Weather on mobile